Time;durP1;ratioP1;P1;durP2;ratioP2;P2;SDS_P1;SDS_P2;PMS_P1;PMS_P2;Temp;Humidity;BMP_temperature;BMP_pressure;BME280_temperature;BME280_humidity;BME280_pressure;Samples;Min_cycle;Max_cycle;Signal;HPM_P1;HPM_P2
2021/12/15 00:02:19;;;;;;;36.80;26.90;;;;;;;;;;105606;1296;64852;-35
2021/12/15 00:04:51;;;;;;;33.60;27.10;;;;;;;;;;105615;1295;64990;-35
2021/12/15 00:07:22;;;;;;;36.30;27.90;;;;;;;;;;105680;1292;66042;-35
2021/12/15 00:09:49;;;;;;;33.30;26.50;;;;;;;;;;105630;1295;64872;-36
2021/12/15 00:12:16;;;;;;;36.20;27.00;;;;;;;;;;105655;1294;65541;-48
2021/12/15 00:14:43;;;;;;;35.00;26.80;;;;;;;;;;105639;1296;64776;-37
2021/12/15 00:17:10;;;;;;;34.80;26.40;;;;;;;;;;105630;1293;64914;-35
2021/12/15 00:19:39;;;;;;;34.80;25.70;;;;;;;;;;105627;1294;64816;-35
2021/12/15 00:22:06;;;;;;;34.20;26.30;;;;;;;;;;105632;1295;64774;-35
2021/12/15 00:24:33;;;;;;;34.50;26.50;;;;;;;;;;105619;1294;64935;-34
2021/12/15 00:27:00;;;;;;;35.00;25.70;;;;;;;;;;105682;1294;64884;-30
2021/12/15 00:29:27;;;;;;;33.00;25.90;;;;;;;;;;105629;1295;64914;-30
2021/12/15 00:31:54;;;;;;;34.30;26.80;;;;;;;;;;105617;1292;64932;-35
2021/12/15 00:34:21;;;;;;;34.20;26.20;;;;;;;;;;105622;1292;64766;-35
2021/12/15 00:36:48;;;;;;;33.00;25.80;;;;;;;;;;105645;1295;64822;-35
2021/12/15 00:39:17;;;;;;;33.00;25.50;;;;;;;;;;105619;1295;64763;-35
2021/12/15 00:41:45;;;;;;;34.30;26.60;;;;;;;;;;105619;1294;65190;-35
2021/12/15 00:44:12;;;;;;;33.70;26.50;;;;;;;;;;105638;1286;65354;-34
2021/12/15 00:46:40;;;;;;;33.40;25.80;;;;;;;;;;105663;1294;64848;-29
2021/12/15 00:49:07;;;;;;;34.80;27.40;;;;;;;;;;105634;1291;64775;-29
2021/12/15 00:51:35;;;;;;;30.70;25.70;;;;;;;;;;105609;1292;64872;-29
2021/12/15 00:54:02;;;;;;;32.20;25.10;;;;;;;;;;105644;1295;64866;-31
2021/12/15 00:56:29;;;;;;;32.60;25.20;;;;;;;;;;105632;1294;64856;-34
2021/12/15 00:58:56;;;;;;;32.30;24.60;;;;;;;;;;105623;1294;64903;-35
2021/12/15 01:01:24;;;;;;;33.60;25.90;;;;;;;;;;105669;1292;64872;-36
2021/12/15 01:03:50;;;;;;;29.40;24.40;;;;;;;;;;105644;1295;64935;-36
2021/12/15 01:06:20;;;;;;;33.50;24.40;;;;;;;;;;105646;1292;65295;-34
2021/12/15 01:08:53;;;;;;;32.80;25.00;;;;;;;;;;105660;1292;64809;-38
2021/12/15 01:22:11;;;;;;;31.40;24.30;;;;;;;;;;105583;1294;64893;-29
2021/12/15 01:24:38;;;;;;;30.40;24.00;;;;;;;;;;105634;1296;64948;-30
2021/12/15 01:27:05;;;;;;;29.50;23.80;;;;;;;;;;105695;1294;64722;-36
2021/12/15 01:29:32;;;;;;;30.20;24.00;;;;;;;;;;105643;1293;64748;-37
2021/12/15 01:31:59;;;;;;;30.30;24.10;;;;;;;;;;105651;1296;64890;-34
2021/12/15 01:34:26;;;;;;;29.20;23.60;;;;;;;;;;105631;1294;64854;-35
2021/12/15 01:36:53;;;;;;;29.80;23.20;;;;;;;;;;105654;1291;65410;-29
2021/12/15 01:39:20;;;;;;;30.00;24.00;;;;;;;;;;105631;1289;64775;-29
2021/12/15 01:41:47;;;;;;;29.60;22.90;;;;;;;;;;105610;1295;64873;-35
2021/12/15 01:46:59;;;;;;;29.50;23.00;;;;;;;;;;105657;1291;64859;-31
2021/12/15 01:49:26;;;;;;;28.40;23.80;;;;;;;;;;105611;1296;64868;-28
2021/12/15 01:51:54;;;;;;;28.90;22.30;;;;;;;;;;105644;1296;64960;-30
2021/12/15 01:54:21;;;;;;;29.10;23.00;;;;;;;;;;105632;1296;64949;-30
2021/12/15 01:56:49;;;;;;;29.10;23.10;;;;;;;;;;105666;1296;64744;-27
2021/12/15 01:59:18;;;;;;;29.80;23.00;;;;;;;;;;105705;1291;64705;-28
2021/12/15 02:01:45;;;;;;;28.60;22.70;;;;;;;;;;105643;1295;65036;-27
2021/12/15 02:04:12;;;;;;;32.00;23.70;;;;;;;;;;105671;1296;64851;-28
2021/12/15 02:06:42;;;;;;;28.30;22.10;;;;;;;;;;105614;1295;64845;-29
2021/12/15 02:09:16;;;;;;;29.40;22.50;;;;;;;;;;105641;1295;64812;-29
2021/12/15 02:11:43;;;;;;;28.00;21.60;;;;;;;;;;105605;1294;64848;-35
2021/12/15 02:14:11;;;;;;;28.60;23.90;;;;;;;;;;105643;1295;64738;-35
2021/12/15 02:16:38;;;;;;;29.90;21.70;;;;;;;;;;105643;1295;64703;-29
2021/12/15 02:19:05;;;;;;;27.60;22.10;;;;;;;;;;105622;1295;64716;-29
2021/12/15 02:21:32;;;;;;;25.80;21.40;;;;;;;;;;105624;1295;64860;-29
2021/12/15 02:24:00;;;;;;;26.40;21.40;;;;;;;;;;105603;1295;64861;-29
2021/12/15 02:26:34;;;;;;;26.80;21.70;;;;;;;;;;105628;1295;64780;-28
2021/12/15 02:29:03;;;;;;;26.40;22.10;;;;;;;;;;105637;1293;64749;-28
2021/12/15 02:34:32;;;;;;;26.50;21.00;;;;;;;;;;105650;1295;64750;-34
2021/12/15 02:39:42;;;;;;;26.10;21.00;;;;;;;;;;105615;1292;64727;-35
2021/12/15 02:42:09;;;;;;;25.50;20.80;;;;;;;;;;105639;1292;64843;-29
2021/12/15 02:44:41;;;;;;;28.00;20.70;;;;;;;;;;105609;1296;64718;-29
2021/12/15 02:47:08;;;;;;;26.50;21.90;;;;;;;;;;105655;1291;64851;-34
2021/12/15 02:49:35;;;;;;;27.20;20.50;;;;;;;;;;105644;1295;64856;-35
2021/12/15 02:52:03;;;;;;;24.90;20.30;;;;;;;;;;105623;1295;64834;-37
2021/12/15 02:54:30;;;;;;;26.30;20.90;;;;;;;;;;105630;1295;64823;-36
2021/12/15 02:57:05;;;;;;;24.90;19.60;;;;;;;;;;105644;1296;64811;-27
2021/12/15 02:59:42;;;;;;;25.30;20.00;;;;;;;;;;105640;1294;64768;-28
2021/12/15 03:05:12;;;;;;;23.90;19.20;;;;;;;;;;105279;1299;64874;-37
2021/12/15 03:07:56;;;;;;;25.80;19.70;;;;;;;;;;105642;1293;64803;-29
2021/12/15 03:15:54;;;;;;;24.10;19.90;;;;;;;;;;105654;1296;64819;-28
2021/12/15 03:18:22;;;;;;;23.10;19.20;;;;;;;;;;105617;1292;64846;-28
2021/12/15 03:20:54;;;;;;;24.10;19.40;;;;;;;;;;105688;1295;64842;-28
2021/12/15 03:23:51;;;;;;;22.30;18.90;;;;;;;;;;105695;1295;64934;-30
2021/12/15 03:26:51;;;;;;;24.00;18.90;;;;;;;;;;105727;1296;64754;-34
2021/12/15 03:37:27;;;;;;;20.80;17.90;;;;;;;;;;105689;1292;64800;-28
2021/12/15 03:39:57;;;;;;;23.30;18.90;;;;;;;;;;105672;1294;64953;-28
2021/12/15 03:42:31;;;;;;;22.90;18.30;;;;;;;;;;105678;1291;64812;-35
2021/12/15 03:45:00;;;;;;;21.20;17.80;;;;;;;;;;105670;1292;64845;-35
2021/12/15 03:47:29;;;;;;;21.20;17.80;;;;;;;;;;105715;1295;64754;-29
2021/12/15 03:49:58;;;;;;;21.40;17.50;;;;;;;;;;105720;1296;64808;-28
2021/12/15 03:52:25;;;;;;;22.60;17.40;;;;;;;;;;105658;1294;64751;-29
2021/12/15 03:54:53;;;;;;;19.80;16.30;;;;;;;;;;105732;1296;64861;-30
2021/12/15 03:57:21;;;;;;;22.40;17.90;;;;;;;;;;105725;1292;64783;-28
2021/12/15 03:59:48;;;;;;;20.90;17.80;;;;;;;;;;105708;1292;66092;-28
2021/12/15 04:02:16;;;;;;;22.40;18.10;;;;;;;;;;105687;1296;64747;-28
2021/12/15 04:04:44;;;;;;;21.70;17.40;;;;;;;;;;105668;1296;64867;-28
2021/12/15 04:07:12;;;;;;;21.60;17.00;;;;;;;;;;105689;1295;64814;-35
2021/12/15 04:09:39;;;;;;;22.00;17.10;;;;;;;;;;105676;1296;65965;-35
2021/12/15 04:12:06;;;;;;;20.80;16.60;;;;;;;;;;105703;1295;64837;-37
2021/12/15 04:14:44;;;;;;;21.10;17.00;;;;;;;;;;105664;1294;64859;-36
2021/12/15 04:17:26;;;;;;;21.90;17.90;;;;;;;;;;105662;1296;64912;-27
2021/12/15 04:19:55;;;;;;;20.20;16.50;;;;;;;;;;105705;1295;64882;-29
2021/12/15 04:22:23;;;;;;;21.40;17.20;;;;;;;;;;105695;1293;64821;-35
2021/12/15 04:24:51;;;;;;;20.30;16.70;;;;;;;;;;105640;1291;64823;-37
2021/12/15 04:27:18;;;;;;;20.80;16.80;;;;;;;;;;105687;1292;64778;-35
2021/12/15 04:29:46;;;;;;;22.10;16.80;;;;;;;;;;105705;1294;64906;-35
2021/12/15 04:32:23;;;;;;;20.50;16.20;;;;;;;;;;105719;1295;64844;-35
2021/12/15 04:34:50;;;;;;;20.10;16.40;;;;;;;;;;105627;1294;64995;-35
2021/12/15 04:37:17;;;;;;;21.50;16.90;;;;;;;;;;105672;1296;64815;-29
2021/12/15 04:39:44;;;;;;;19.40;16.40;;;;;;;;;;105636;1292;64845;-29
2021/12/15 04:42:11;;;;;;;19.40;15.90;;;;;;;;;;105560;1297;64847;-29
2021/12/15 04:44:38;;;;;;;20.10;16.20;;;;;;;;;;105641;1296;64963;-29
2021/12/15 04:47:09;;;;;;;19.40;15.00;;;;;;;;;;105648;1296;64776;-28
2021/12/15 04:49:39;;;;;;;19.00;15.50;;;;;;;;;;105648;1294;64878;-27
2021/12/15 04:52:07;;;;;;;19.30;15.70;;;;;;;;;;105650;1292;64821;-35
2021/12/15 04:54:34;;;;;;;19.70;15.60;;;;;;;;;;105628;1295;64848;-35
2021/12/15 04:57:01;;;;;;;20.50;15.50;;;;;;;;;;105612;1292;64818;-31
2021/12/15 04:59:28;;;;;;;18.90;15.50;;;;;;;;;;105660;1294;64872;-31
2021/12/15 05:01:55;;;;;;;20.00;15.80;;;;;;;;;;105650;1295;65532;-36
2021/12/15 05:04:22;;;;;;;20.20;15.70;;;;;;;;;;105619;1292;66072;-35
2021/12/15 05:06:49;;;;;;;19.80;15.50;;;;;;;;;;105674;1294;64890;-32
2021/12/15 05:09:16;;;;;;;19.60;15.40;;;;;;;;;;105681;1293;64952;-28
2021/12/15 05:11:44;;;;;;;17.40;14.70;;;;;;;;;;105624;1295;64847;-28
2021/12/15 05:14:11;;;;;;;20.90;15.50;;;;;;;;;;105628;1294;64867;-32
2021/12/15 05:16:38;;;;;;;18.00;15.00;;;;;;;;;;105660;1295;65901;-36
2021/12/15 05:19:06;;;;;;;17.40;14.60;;;;;;;;;;105650;1292;64703;-36
2021/12/15 05:21:34;;;;;;;19.80;15.00;;;;;;;;;;105633;1295;64825;-36
2021/12/15 05:24:11;;;;;;;19.20;14.80;;;;;;;;;;105653;1294;65446;-35
2021/12/15 05:26:38;;;;;;;19.90;15.90;;;;;;;;;;105663;1294;64775;-27
2021/12/15 05:29:05;;;;;;;19.40;15.20;;;;;;;;;;105634;1292;65019;-31
2021/12/15 05:31:32;;;;;;;17.60;14.20;;;;;;;;;;105622;1294;64909;-35
2021/12/15 05:34:02;;;;;;;18.70;14.30;;;;;;;;;;105612;1295;64917;-35
2021/12/15 05:36:29;;;;;;;19.20;14.30;;;;;;;;;;105626;1292;64996;-30
2021/12/15 05:38:56;;;;;;;19.20;15.20;;;;;;;;;;105625;1296;64778;-30
2021/12/15 05:41:23;;;;;;;17.60;14.20;;;;;;;;;;105665;1293;64844;-29
2021/12/15 05:43:50;;;;;;;18.90;14.40;;;;;;;;;;105630;1292;64912;-29
2021/12/15 05:46:17;;;;;;;18.20;13.90;;;;;;;;;;105641;1292;64826;-29
2021/12/15 05:48:44;;;;;;;18.30;15.10;;;;;;;;;;105630;1294;64881;-29
2021/12/15 05:51:11;;;;;;;18.60;14.90;;;;;;;;;;105637;1294;64723;-35
2021/12/15 05:53:38;;;;;;;18.80;14.40;;;;;;;;;;105605;1294;64862;-35
2021/12/15 05:56:06;;;;;;;17.90;14.60;;;;;;;;;;105614;1295;65575;-28
2021/12/15 05:58:33;;;;;;;18.30;14.20;;;;;;;;;;105652;1293;64886;-34
2021/12/15 06:01:00;;;;;;;17.50;14.20;;;;;;;;;;105608;1294;64789;-36
2021/12/15 06:03:27;;;;;;;18.70;14.60;;;;;;;;;;105638;1292;64961;-35
2021/12/15 06:05:54;;;;;;;18.50;14.30;;;;;;;;;;105629;1292;66719;-29
2021/12/15 06:08:21;;;;;;;18.70;14.30;;;;;;;;;;105633;1292;64914;-33
2021/12/15 06:10:48;;;;;;;17.20;14.30;;;;;;;;;;105682;1294;64777;-29
2021/12/15 06:13:15;;;;;;;17.20;13.90;;;;;;;;;;105623;1292;64783;-30
2021/12/15 06:15:43;;;;;;;19.10;14.70;;;;;;;;;;105642;1294;64966;-28
2021/12/15 06:18:12;;;;;;;17.50;14.10;;;;;;;;;;105669;1292;64841;-30
2021/12/15 06:20:40;;;;;;;19.10;14.90;;;;;;;;;;105652;1294;64853;-35
2021/12/15 06:23:16;;;;;;;18.40;13.80;;;;;;;;;;105627;1292;64840;-36
2021/12/15 06:25:45;;;;;;;19.40;13.90;;;;;;;;;;105628;1294;65299;-36
2021/12/15 06:28:12;;;;;;;19.30;14.50;;;;;;;;;;105442;1294;187611;-34
2021/12/15 06:30:39;;;;;;;19.10;13.90;;;;;;;;;;105665;1291;64803;-36
2021/12/15 06:33:07;;;;;;;18.60;14.70;;;;;;;;;;105657;1292;64821;-37
2021/12/15 06:35:35;;;;;;;18.30;14.10;;;;;;;;;;105664;1294;64745;-33
2021/12/15 06:38:03;;;;;;;17.60;14.20;;;;;;;;;;105657;1296;64943;-29
2021/12/15 06:40:30;;;;;;;16.70;13.50;;;;;;;;;;105640;1289;64887;-29
2021/12/15 06:42:57;;;;;;;18.10;14.70;;;;;;;;;;105624;1292;64762;-29
2021/12/15 06:45:34;;;;;;;18.20;14.30;;;;;;;;;;105663;1293;64831;-28
2021/12/15 06:59:02;;;;;;;17.90;13.90;;;;;;;;;;105642;1294;64844;-29
2021/12/15 07:01:30;;;;;;;15.90;12.90;;;;;;;;;;105618;1292;64755;-35
2021/12/15 07:03:56;;;;;;;17.70;13.60;;;;;;;;;;105633;1293;64774;-37
2021/12/15 07:06:24;;;;;;;18.80;14.40;;;;;;;;;;105670;1294;64875;-35
2021/12/15 07:08:51;;;;;;;18.90;14.30;;;;;;;;;;105642;1295;64966;-35
2021/12/15 07:11:19;;;;;;;16.20;13.40;;;;;;;;;;105617;1291;64868;-34
2021/12/15 07:13:46;;;;;;;16.20;13.10;;;;;;;;;;105604;1292;65036;-28
2021/12/15 07:16:13;;;;;;;17.50;13.50;;;;;;;;;;105660;1294;64755;-29
2021/12/15 07:19:04;;;;;;;18.60;14.10;;;;;;;;;;105672;1294;64958;-29
2021/12/15 07:21:36;;;;;;;17.40;13.50;;;;;;;;;;105694;1293;64865;-29
2021/12/15 07:24:03;;;;;;;17.40;13.50;;;;;;;;;;105610;1294;64818;-28
2021/12/15 07:26:30;;;;;;;19.80;13.50;;;;;;;;;;105673;1296;64847;-35
2021/12/15 07:28:57;;;;;;;17.80;12.90;;;;;;;;;;105601;1294;64837;-35
2021/12/15 07:31:24;;;;;;;16.20;13.30;;;;;;;;;;105620;1292;64784;-29
2021/12/15 07:33:51;;;;;;;16.70;13.10;;;;;;;;;;105636;1294;64859;-46
2021/12/15 07:36:18;;;;;;;18.10;13.50;;;;;;;;;;105636;1293;64851;-36
2021/12/15 07:38:45;;;;;;;15.40;12.60;;;;;;;;;;105623;1294;64805;-36
2021/12/15 07:41:24;;;;;;;17.80;13.70;;;;;;;;;;105630;1294;64778;-36
2021/12/15 07:43:51;;;;;;;17.30;13.60;;;;;;;;;;105626;1294;64778;-35
2021/12/15 07:46:19;;;;;;;17.50;13.20;;;;;;;;;;105637;1292;64735;-29
2021/12/15 07:48:46;;;;;;;16.70;12.50;;;;;;;;;;105645;1293;64781;-28
2021/12/15 07:51:13;;;;;;;18.30;13.50;;;;;;;;;;105584;1292;64777;-35
2021/12/15 07:53:41;;;;;;;16.00;13.20;;;;;;;;;;105596;1294;64897;-35
2021/12/15 07:56:08;;;;;;;17.50;14.00;;;;;;;;;;105634;1292;64947;-28
2021/12/15 07:58:35;;;;;;;17.20;13.50;;;;;;;;;;105606;1294;64915;-35
2021/12/15 08:01:04;;;;;;;19.70;13.80;;;;;;;;;;105632;1294;64733;-28
2021/12/15 08:03:31;;;;;;;18.40;13.50;;;;;;;;;;105626;1287;64880;-29
2021/12/15 08:05:59;;;;;;;19.30;13.80;;;;;;;;;;105625;1292;64858;-27
2021/12/15 08:08:26;;;;;;;18.20;12.00;;;;;;;;;;105562;1294;64822;-31
2021/12/15 08:10:56;;;;;;;15.60;12.90;;;;;;;;;;105629;1292;64756;-29
2021/12/15 08:13:27;;;;;;;16.50;13.00;;;;;;;;;;105609;1294;64754;-29
2021/12/15 08:15:54;;;;;;;17.30;13.80;;;;;;;;;;105638;1294;64787;-30
2021/12/15 08:18:21;;;;;;;16.70;12.80;;;;;;;;;;105638;1293;64732;-28
2021/12/15 08:20:50;;;;;;;15.00;12.80;;;;;;;;;;105621;1290;64888;-35
2021/12/15 08:23:18;;;;;;;17.70;13.40;;;;;;;;;;105615;1294;64867;-35
2021/12/15 08:25:45;;;;;;;15.80;12.50;;;;;;;;;;105617;1293;64822;-35
2021/12/15 08:28:12;;;;;;;16.00;12.80;;;;;;;;;;105667;1295;65591;-35
2021/12/15 08:30:41;;;;;;;16.40;13.00;;;;;;;;;;105589;1296;64781;-31
2021/12/15 08:33:12;;;;;;;14.60;12.20;;;;;;;;;;105609;1295;64884;-28
2021/12/15 08:35:41;;;;;;;16.90;13.30;;;;;;;;;;105657;1292;64836;-35
2021/12/15 08:38:10;;;;;;;16.30;13.20;;;;;;;;;;105650;1292;64870;-35
2021/12/15 08:40:37;;;;;;;14.70;12.20;;;;;;;;;;105649;1295;64759;-30
2021/12/15 08:43:06;;;;;;;16.70;12.40;;;;;;;;;;105618;1294;64847;-30
2021/12/15 08:45:34;;;;;;;17.00;12.30;;;;;;;;;;105646;1295;64984;-30
2021/12/15 08:48:02;;;;;;;16.50;13.00;;;;;;;;;;105683;1291;64918;-30
2021/12/15 08:50:31;;;;;;;24.70;18.70;;;;;;;;;;105613;1292;64737;-30
2021/12/15 08:52:58;;;;;;;25.20;18.10;;;;;;;;;;105651;1291;64878;-28
2021/12/15 08:55:26;;;;;;;18.60;13.80;;;;;;;;;;105623;1292;64855;-28
2021/12/15 08:57:56;;;;;;;18.80;13.30;;;;;;;;;;105692;1296;64750;-35
2021/12/15 09:00:27;;;;;;;16.50;13.30;;;;;;;;;;105691;1293;64765;-34
2021/12/15 09:02:55;;;;;;;18.10;13.60;;;;;;;;;;105690;1292;64860;-39
2021/12/15 09:05:22;;;;;;;16.70;13.40;;;;;;;;;;105661;1293;64868;-39
2021/12/15 09:07:50;;;;;;;18.10;13.60;;;;;;;;;;105650;1291;64749;-29
2021/12/15 09:10:18;;;;;;;17.40;13.90;;;;;;;;;;105640;1293;64829;-32
2021/12/15 09:12:45;;;;;;;16.50;13.20;;;;;;;;;;105669;1293;64746;-47
2021/12/15 09:15:12;;;;;;;17.40;13.50;;;;;;;;;;105624;1292;64750;-36
2021/12/15 09:17:40;;;;;;;15.80;12.80;;;;;;;;;;105701;1292;64843;-29
2021/12/15 09:20:10;;;;;;;16.50;13.00;;;;;;;;;;105621;1292;64860;-30
2021/12/15 09:22:38;;;;;;;16.00;13.10;;;;;;;;;;105612;1294;64897;-35
2021/12/15 09:25:08;;;;;;;17.00;12.60;;;;;;;;;;105611;1293;64921;-34
2021/12/15 09:27:35;;;;;;;16.00;13.20;;;;;;;;;;105658;1295;64920;-29
2021/12/15 09:30:07;;;;;;;16.90;13.00;;;;;;;;;;105599;1294;64709;-29
2021/12/15 09:32:34;;;;;;;17.40;13.30;;;;;;;;;;105620;1292;64858;-31
2021/12/15 09:35:01;;;;;;;16.60;12.80;;;;;;;;;;105651;1294;64748;-33
2021/12/15 09:37:28;;;;;;;17.90;13.00;;;;;;;;;;105649;1292;64893;-37
2021/12/15 09:39:56;;;;;;;16.50;13.30;;;;;;;;;;105637;1294;64805;-41
2021/12/15 09:42:30;;;;;;;16.10;12.10;;;;;;;;;;105646;1293;64855;-39
2021/12/15 09:45:04;;;;;;;16.30;12.50;;;;;;;;;;105616;1292;64912;-36
2021/12/15 09:47:48;;;;;;;15.80;12.40;;;;;;;;;;105648;1294;64844;-29
2021/12/15 10:06:50;;;;;;;17.00;11.70;;;;;;;;;;105676;1293;64755;-37
2021/12/15 10:20:07;;;;;;;15.60;11.20;;;;;;;;;;105662;1293;64768;-31
2021/12/15 10:22:42;;;;;;;14.40;11.70;;;;;;;;;;105667;1291;64859;-39
2021/12/15 10:25:09;;;;;;;16.50;12.70;;;;;;;;;;105645;1292;64903;-34
2021/12/15 10:27:44;;;;;;;14.90;12.30;;;;;;;;;;105648;1293;64830;-34
2021/12/15 10:30:14;;;;;;;16.70;12.20;;;;;;;;;;105667;1294;64810;-36
2021/12/15 10:32:43;;;;;;;17.60;13.10;;;;;;;;;;105674;1291;64824;-30
2021/12/15 10:35:15;;;;;;;17.20;12.20;;;;;;;;;;105634;1296;64813;-30
2021/12/15 10:37:43;;;;;;;15.60;11.30;;;;;;;;;;105650;1294;64912;-33
2021/12/15 10:40:19;;;;;;;14.70;11.40;;;;;;;;;;105685;1294;64863;-29
2021/12/15 10:42:47;;;;;;;15.20;11.60;;;;;;;;;;105453;1293;64882;-41
2021/12/15 10:45:15;;;;;;;14.70;11.20;;;;;;;;;;105643;1294;64934;-42
2021/12/15 10:47:44;;;;;;;16.10;11.00;;;;;;;;;;105626;1294;64855;-39
2021/12/15 10:50:12;;;;;;;14.90;12.20;;;;;;;;;;105645;1293;64837;-40
2021/12/15 10:52:57;;;;;;;16.30;11.50;;;;;;;;;;105438;1293;64852;-29
2021/12/15 10:55:28;;;;;;;14.30;11.50;;;;;;;;;;105630;1292;64871;-29
2021/12/15 10:58:00;;;;;;;14.10;11.20;;;;;;;;;;105476;1293;64802;-30
2021/12/15 11:00:35;;;;;;;16.30;12.10;;;;;;;;;;105647;1294;64855;-30
2021/12/15 11:03:03;;;;;;;15.90;12.00;;;;;;;;;;105684;1292;64862;-40
2021/12/15 11:05:33;;;;;;;13.80;11.10;;;;;;;;;;105658;1289;64825;-32
2021/12/15 11:08:01;;;;;;;14.90;12.10;;;;;;;;;;105647;1294;64783;-39
2021/12/15 11:10:34;;;;;;;14.70;11.40;;;;;;;;;;105206;1296;64961;-36
2021/12/15 11:13:11;;;;;;;15.80;11.50;;;;;;;;;;105653;1294;64838;-32
2021/12/15 11:15:41;;;;;;;14.30;11.30;;;;;;;;;;105300;1295;64788;-40
2021/12/15 11:18:11;;;;;;;13.80;11.20;;;;;;;;;;105638;1294;64856;-39
2021/12/15 11:20:40;;;;;;;14.90;11.50;;;;;;;;;;105645;1293;64847;-32
2021/12/15 11:23:08;;;;;;;15.50;11.70;;;;;;;;;;105635;1293;64821;-39
2021/12/15 11:25:37;;;;;;;13.20;10.90;;;;;;;;;;105651;1297;64770;-40
2021/12/15 11:28:04;;;;;;;13.50;11.20;;;;;;;;;;105588;1277;64977;-37
2021/12/15 11:30:34;;;;;;;15.00;11.50;;;;;;;;;;105650;1293;64842;-30
2021/12/15 11:33:04;;;;;;;13.70;11.30;;;;;;;;;;105669;1293;65385;-29
2021/12/15 11:35:33;;;;;;;15.70;12.00;;;;;;;;;;105618;1294;64742;-34
2021/12/15 11:38:10;;;;;;;14.00;11.30;;;;;;;;;;105517;1297;66114;-37
2021/12/15 11:40:57;;;;;;;15.90;12.10;;;;;;;;;;105645;1294;64672;-31
2021/12/15 11:43:29;;;;;;;17.10;12.00;;;;;;;;;;105198;1293;64792;-31
2021/12/15 11:45:56;;;;;;;13.40;10.70;;;;;;;;;;105270;1296;65034;-43
2021/12/15 11:48:33;;;;;;;13.70;10.90;;;;;;;;;;105649;1294;64912;-35
2021/12/15 11:51:03;;;;;;;15.50;11.10;;;;;;;;;;105690;1295;64726;-31
2021/12/15 11:53:45;;;;;;;13.20;11.20;;;;;;;;;;105435;1283;64798;-27
2021/12/15 11:56:30;;;;;;;13.40;10.70;;;;;;;;;;105288;1298;64895;-29
2021/12/15 11:59:14;;;;;;;14.50;11.10;;;;;;;;;;105463;1293;64775;-31
2021/12/15 12:01:41;;;;;;;15.20;11.70;;;;;;;;;;105475;1293;64923;-32
2021/12/15 12:04:09;;;;;;;15.00;11.20;;;;;;;;;;105458;1293;64900;-34
2021/12/15 12:06:36;;;;;;;14.90;11.30;;;;;;;;;;105476;1293;64758;-36
2021/12/15 12:09:03;;;;;;;15.30;11.90;;;;;;;;;;105265;1296;64889;-30
2021/12/15 12:11:33;;;;;;;13.90;11.40;;;;;;;;;;105432;1293;64877;-34
2021/12/15 12:14:00;;;;;;;13.50;11.00;;;;;;;;;;105438;1293;64826;-36
2021/12/15 12:16:27;;;;;;;13.70;11.50;;;;;;;;;;105438;1293;64971;-38
2021/12/15 12:18:55;;;;;;;13.90;11.70;;;;;;;;;;105459;1293;64937;-37
2021/12/15 12:21:23;;;;;;;14.80;11.00;;;;;;;;;;105451;1293;64949;-37
2021/12/15 12:23:50;;;;;;;14.10;11.20;;;;;;;;;;105296;1293;64996;-36
2021/12/15 12:26:19;;;;;;;14.50;11.70;;;;;;;;;;105451;1293;64762;-37
2021/12/15 12:28:47;;;;;;;15.20;11.80;;;;;;;;;;105451;1297;64893;-32
2021/12/15 12:31:20;;;;;;;14.50;11.50;;;;;;;;;;105451;1297;64934;-32
2021/12/15 12:33:47;;;;;;;;;;;;;;;;;;105472;1294;64906;-31
2021/12/15 12:36:17;;;;;;;18.70;14.10;;;;;;;;;;105433;1294;65013;-31
2021/12/15 12:38:49;;;;;;;20.60;16.00;;;;;;;;;;105472;1293;64833;-33
2021/12/15 12:41:18;;;;;;;21.40;18.50;;;;;;;;;;105446;1297;64857;-31
2021/12/15 12:43:47;;;;;;;23.90;20.00;;;;;;;;;;105508;1293;64786;-34
2021/12/15 12:46:21;;;;;;;27.10;23.70;;;;;;;;;;105474;1293;64937;-50
2021/12/15 13:00:21;;;;;;;24.70;22.10;;;;;;;;;;105607;1293;64836;-35
2021/12/15 13:02:51;;;;;;;25.90;22.00;;;;;;;;;;105573;1293;64919;-34
2021/12/15 13:05:29;;;;;;;28.20;23.20;;;;;;;;;;105465;1293;64947;-39
2021/12/15 13:07:58;;;;;;;28.70;23.40;;;;;;;;;;105622;1293;64850;-32
2021/12/15 13:10:44;;;;;;;26.00;21.70;;;;;;;;;;105616;1293;64831;-29
2021/12/15 13:13:13;;;;;;;24.80;21.90;;;;;;;;;;105615;1294;64859;-35
2021/12/15 13:15:40;;;;;;;25.70;21.80;;;;;;;;;;105622;1294;64741;-35
2021/12/15 13:18:12;;;;;;;24.70;21.50;;;;;;;;;;105619;1293;64847;-32
2021/12/15 13:20:40;;;;;;;27.10;23.30;;;;;;;;;;105586;1297;64746;-34
2021/12/15 13:28:48;;;;;;;26.60;21.80;;;;;;;;;;105602;1297;64980;-41
2021/12/15 13:31:15;;;;;;;25.60;21.90;;;;;;;;;;105595;1297;64808;-41
2021/12/15 13:33:45;;;;;;;24.90;21.20;;;;;;;;;;105611;1293;64898;-41
2021/12/15 13:36:18;;;;;;;25.90;21.70;;;;;;;;;;105556;1294;64745;-46
2021/12/15 13:38:44;;;;;;;;;;;;;;;;;;105191;1296;64881;-42
2021/12/15 13:44:04;;;;;;;25.50;21.40;;;;;;;;;;105575;1294;64805;-42
2021/12/15 13:46:36;;;;;;;23.10;20.60;;;;;;;;;;105272;1296;64921;-44
2021/12/15 13:49:18;;;;;;;23.20;20.30;;;;;;;;;;105236;1299;64738;-44
2021/12/15 13:52:04;;;;;;;23.70;20.30;;;;;;;;;;105122;1286;64902;-43
2021/12/15 13:54:33;;;;;;;25.20;20.60;;;;;;;;;;105313;1297;64845;-41
2021/12/15 13:57:14;;;;;;;26.10;20.10;;;;;;;;;;105297;1297;64826;-34
2021/12/15 13:59:41;;;;;;;23.90;20.90;;;;;;;;;;105255;1296;64832;-32
2021/12/15 14:02:12;;;;;;;24.40;21.20;;;;;;;;;;105268;1297;64841;-40
2021/12/15 14:04:48;;;;;;;26.20;22.30;;;;;;;;;;105493;1297;64830;-40
2021/12/15 14:07:28;;;;;;;23.60;20.60;;;;;;;;;;105530;1294;64744;-44
2021/12/15 14:10:01;;;;;;;25.50;20.30;;;;;;;;;;105577;1293;64825;-37
2021/12/15 14:12:45;;;;;;;24.60;21.30;;;;;;;;;;105512;1294;64830;-37
2021/12/15 14:15:25;;;;;;;24.30;19.70;;;;;;;;;;105605;1294;64804;-38
2021/12/15 14:18:07;;;;;;;24.60;20.60;;;;;;;;;;105513;1293;64857;-34
2021/12/15 14:20:41;;;;;;;24.80;21.30;;;;;;;;;;105257;1296;64935;-43
2021/12/15 14:23:11;;;;;;;25.30;20.90;;;;;;;;;;105614;1296;64790;-33
2021/12/15 14:25:38;;;;;;;24.50;20.50;;;;;;;;;;105344;1296;65021;-32
2021/12/15 14:28:10;;;;;;;25.50;21.20;;;;;;;;;;105072;1296;260064;-38
2021/12/15 14:30:38;;;;;;;22.80;19.60;;;;;;;;;;105569;1296;65565;-33
2021/12/15 14:33:19;;;;;;;22.50;19.30;;;;;;;;;;105540;1285;64871;-35
2021/12/15 14:35:46;;;;;;;25.20;19.10;;;;;;;;;;105599;1294;64845;-43
2021/12/15 14:38:13;;;;;;;24.20;19.50;;;;;;;;;;105611;1294;64744;-35
2021/12/15 14:40:40;;;;;;;23.10;19.70;;;;;;;;;;105583;1293;64813;-34
2021/12/15 14:43:10;;;;;;;23.10;19.40;;;;;;;;;;105618;1293;64758;-30
2021/12/15 14:45:37;;;;;;;22.00;19.00;;;;;;;;;;105599;1293;64768;-36
2021/12/15 14:48:15;;;;;;;22.90;18.90;;;;;;;;;;105604;1293;64750;-36
2021/12/15 14:50:42;;;;;;;23.50;19.50;;;;;;;;;;105622;1294;64855;-37
2021/12/15 14:53:09;;;;;;;23.80;20.00;;;;;;;;;;105376;1287;64847;-35
2021/12/15 14:55:36;;;;;;;23.90;18.60;;;;;;;;;;105620;1293;64860;-31
2021/12/15 14:58:04;;;;;;;23.50;18.80;;;;;;;;;;105271;1296;64888;-33
2021/12/15 15:00:33;;;;;;;24.20;19.50;;;;;;;;;;105311;1296;64980;-35
2021/12/15 15:03:05;;;;;;;23.00;18.80;;;;;;;;;;105647;1294;64856;-33
2021/12/15 15:05:34;;;;;;;22.90;19.20;;;;;;;;;;105569;1296;64757;-32
2021/12/15 15:08:10;;;;;;;24.90;19.50;;;;;;;;;;105582;1295;64811;-48
2021/12/15 15:10:38;;;;;;;25.30;19.20;;;;;;;;;;105387;1296;64867;-46
2021/12/15 15:13:08;;;;;;;24.70;19.00;;;;;;;;;;105567;1296;64757;-32
2021/12/15 15:15:38;;;;;;;24.50;18.80;;;;;;;;;;105633;1297;64778;-38
2021/12/15 15:20:41;;;;;;;25.10;19.00;;;;;;;;;;105341;1298;64904;-33
2021/12/15 15:23:12;;;;;;;22.30;18.90;;;;;;;;;;105530;1293;64811;-46
2021/12/15 15:25:42;;;;;;;27.70;19.20;;;;;;;;;;105523;1293;64852;-41
2021/12/15 15:28:11;;;;;;;22.30;17.60;;;;;;;;;;105604;1291;64839;-38
2021/12/15 15:30:39;;;;;;;22.40;19.10;;;;;;;;;;105598;1296;64901;-37
2021/12/15 15:33:23;;;;;;;21.70;17.00;;;;;;;;;;105738;1281;64719;-32
2021/12/15 15:36:03;;;;;;;23.80;18.60;;;;;;;;;;105322;1286;64931;-33
2021/12/15 15:38:33;;;;;;;21.30;18.60;;;;;;;;;;105235;1297;64762;-34
2021/12/15 15:41:02;;;;;;;21.60;17.90;;;;;;;;;;105229;1300;64692;-46
2021/12/15 15:43:37;;;;;;;22.70;18.80;;;;;;;;;;105250;1297;64709;-48
2021/12/15 15:46:16;;;;;;;22.50;18.60;;;;;;;;;;105205;1300;64824;-41
2021/12/15 15:48:44;;;;;;;20.40;17.00;;;;;;;;;;105214;1294;64759;-44
2021/12/15 15:51:12;;;;;;;22.40;18.30;;;;;;;;;;105247;1297;64892;-36
2021/12/15 15:53:40;;;;;;;20.80;17.30;;;;;;;;;;105262;1297;64749;-36
2021/12/15 15:56:14;;;;;;;20.90;17.20;;;;;;;;;;105229;1299;64851;-40
2021/12/15 15:58:42;;;;;;;20.20;17.10;;;;;;;;;;105077;1300;64951;-35